FRIANT DAM (MILLERTON) (MIL)

Elevation: 581' · SAN JOAQUIN R basin · Operator: US Bureau of Reclamation

Provisional data, subject to change.
Query executed Monday at 20:09:29   clock

Select a sensor type for a plot of data.
Note: Reservoir Flows are daily averages.

Earlier

Date RES ELE    STORAGE    RES CHG    TOC STO    ABV TOC    OUTFLOW    INFLOW    EVAP    FNF    RIV REL    PPT INC    SPILL   
 FEET   AF   AF   AF   AF   CFS   CFS   CFS   CFS   CFS   INCHES   CFS  
07/05/2015 487.71 181358 -158 520500 -339142 575 527 32 493 256 0.00 0
07/06/2015 487.80 181595 237 520500 -338905 558 708 31 343 256 0.00 0
07/07/2015 488.31 182944 1349 520500 -337556 508 1220 32 385 256 0.00 0
07/08/2015 488.60 183714 770 520500 -336786 487 905 30 319 256 0.00 0
07/09/2015 488.70 183980 266 520500 -336520 388 548 26 466 221 0.00 0
07/10/2015 488.81 184272 292 520500 -336228 395 561 19 509 e 254 0.02 0
07/11/2015 488.89 184484 212 520500 -336016 394 524 23 509 e 252 0.00 0
07/12/2015 489.10 185044 560 520500 -335456 394 704 28 421 252 0.00 0
07/13/2015 489.37 185767 723 520500 -334733 512 905 28 297 252 0.00 0
07/14/2015 489.06 184937 -830 520500 -335563 1092 705 31 296 723 0.00 0
07/15/2015 488.40 183183 -1754 520500 -337317 1956 1099 27 206 e 1590 0.00 0
07/16/2015 487.38 180490 -2693 520500 -340010 2364 1038 32 205 e 2003 0.00 0
07/17/2015 487.05 179622 -868 520500 -340878 2241 1835 32 254 1999 0.00 0
07/18/2015 487.19 179990 368 520500 -340510 1797 2019 36 257 1660 0.15 0
07/19/2015 487.38 180490 500 520500 -340010 1574 1846 20 1098 1437 0.00 0
07/20/2015 487.50 180806 316 520500 -339694 1448 1633 26 230 1310 0.00 0
07/21/2015 487.62 181121 315 520500 -- 1521 1709 29 500 e 1253 0.00 0
07/22/2015 487.48 180753 -368 520500 -339747 1611 1464 39 967 1253 0.00 0
07/23/2015 487.72 181384 631 520500 -339116 1637 1985 30 433 e 1253 0.00 0
07/24/2015 487.79 181568 184 520500 -338932 1613 1738 32 423 1254 0.00 0
07/25/2015 487.43 180621 -947 520500 -339879 1445 999 31 366 1253 0.00 0
07/26/2015 486.97 179412 -1209 520500 -341088 1389 817 38 255 1252 0.00 0
07/27/2015 486.44 178029 -1383 520500 -342471 1452 785 30 129 e 1250 0.00 0
07/28/2015 486.32 177716 -313 520500 -342784 1523 1396 31 129 e 1249 0.00 0
07/29/2015 486.57 178368 652 520500 -342132 1523 1884 32 129 e 1249 0.00 0
07/30/2015 486.50 178186 -182 520500 -342314 1492 1419 19 192 1249 0.00 0
07/31/2015 486.70 178707 521 520500 -341793 1449 1749 37 -288 1249 0.00 0
08/01/2015 487.01 179516 809 520500 -340984 1451 1891 32 389 1250 0.00 0
08/02/2015 486.71 178733 -783 520500 -341767 1572 1211 34 626 1250 0.00 0
08/03/2015 -- -- -- -- -- -- -- -- -- -- -- --

Later | Latest

Warning! This data is preliminary and subject to revision.

Show MIL Map | Plot MIL Data | 1 Month MIL Data | Real-Time MIL Data | MIL Info